createdAt,value
2022-09-11T00:01:40.527Z,100.00
2022-09-11T00:04:07.985Z,100.00
2022-09-11T00:06:35.013Z,100.00
2022-09-11T00:09:07.480Z,100.00
2022-09-11T00:11:41.729Z,100.00
2022-09-11T00:14:14.345Z,100.00
2022-09-11T00:16:47.210Z,100.00
2022-09-11T00:19:20.074Z,100.00
2022-09-11T00:21:50.542Z,100.00
2022-09-11T00:24:17.816Z,100.00
2022-09-11T00:26:47.586Z,100.00
2022-09-11T00:29:14.569Z,100.00
2022-09-11T00:31:41.855Z,100.00
2022-09-11T00:34:09.692Z,100.00
2022-09-11T00:36:39.248Z,100.00
2022-09-11T00:39:06.890Z,100.00
2022-09-11T00:41:45.060Z,100.00
2022-09-11T00:44:17.971Z,100.00
2022-09-11T00:47:01.803Z,100.00
2022-09-11T00:49:34.772Z,100.00
2022-09-11T00:52:42.069Z,100.00
2022-09-11T00:55:16.220Z,100.00
2022-09-11T00:57:56.203Z,100.00
2022-09-11T01:00:23.262Z,100.00
2022-09-11T01:02:54.637Z,100.00
2022-09-11T01:05:26.145Z,100.00
2022-09-11T01:07:56.780Z,100.00
2022-09-11T01:11:23.708Z,100.00
2022-09-11T01:14:34.680Z,100.00
2022-09-11T01:17:57.722Z,100.00
2022-09-11T01:21:34.387Z,100.00
2022-09-11T01:24:32.245Z,100.00
2022-09-11T01:27:48.247Z,100.00
2022-09-11T01:30:32.543Z,100.00
2022-09-11T01:33:34.936Z,100.00
2022-09-11T01:36:34.349Z,100.00
2022-09-11T01:39:05.390Z,100.00
2022-09-11T01:41:48.672Z,100.00
2022-09-11T01:44:49.103Z,100.00
2022-09-11T01:47:21.216Z,100.00
2022-09-11T01:50:04.336Z,100.00
2022-09-11T01:52:50.826Z,100.00
2022-09-11T01:55:39.522Z,100.00
2022-09-11T01:58:30.454Z,100.00
2022-09-11T02:01:18.577Z,100.00
2022-09-11T02:04:24.566Z,100.00
2022-09-11T02:07:10.486Z,100.00
2022-09-11T02:09:56.673Z,100.00
2022-09-11T02:12:43.651Z,100.00
2022-09-11T02:15:16.107Z,100.00
2022-09-11T02:18:07.092Z,100.00
2022-09-11T02:20:36.353Z,100.00
2022-09-11T02:23:03.785Z,100.00
2022-09-11T02:25:31.810Z,100.00
2022-09-11T02:27:59.583Z,100.00
2022-09-11T02:30:26.579Z,100.00
2022-09-11T02:32:56.046Z,100.00
2022-09-11T02:35:45.552Z,100.00
2022-09-11T02:38:53.453Z,100.00
2022-09-11T02:42:00.772Z,100.00
2022-09-11T02:44:57.040Z,100.00
2022-09-11T02:48:16.504Z,100.00
2022-09-11T02:51:33.192Z,100.00
2022-09-11T02:54:53.584Z,100.00
2022-09-11T02:57:39.395Z,100.00
2022-09-11T03:00:10.600Z,100.00
2022-09-11T03:02:43.273Z,100.00
2022-09-11T03:05:11.966Z,100.00
2022-09-11T03:07:39.291Z,100.00
2022-09-11T03:10:08.567Z,100.00
2022-09-11T03:12:36.755Z,100.00
2022-09-11T03:15:06.063Z,100.00
2022-09-11T03:17:33.836Z,100.00
2022-09-11T03:20:00.870Z,100.00
2022-09-11T03:22:28.063Z,100.00
2022-09-11T03:24:55.055Z,100.00
2022-09-11T03:27:23.807Z,100.00
2022-09-11T03:29:50.753Z,100.00
2022-09-11T03:32:17.740Z,100.00
2022-09-11T03:34:44.780Z,100.00
2022-09-11T03:37:11.721Z,100.00
2022-09-11T03:39:38.923Z,100.00
2022-09-11T03:42:07.507Z,100.00
2022-09-11T03:44:34.735Z,100.00
2022-09-11T03:47:01.673Z,100.00
2022-09-11T03:49:28.819Z,100.00
2022-09-11T03:51:57.067Z,100.00
2022-09-11T03:54:24.034Z,100.00
2022-09-11T03:56:50.967Z,100.00
2022-09-11T03:59:19.622Z,100.00
2022-09-11T04:01:50.940Z,100.00
2022-09-11T04:04:18.523Z,100.00
2022-09-11T04:06:45.484Z,100.00
2022-09-11T04:09:12.468Z,100.00
2022-09-11T04:11:40.268Z,100.00
2022-09-11T04:14:08.317Z,100.00
2022-09-11T04:16:36.045Z,100.00
2022-09-11T04:19:04.191Z,100.00
2022-09-11T04:21:34.426Z,100.00
2022-09-11T04:24:02.409Z,100.00
2022-09-11T04:26:32.353Z,100.00
2022-09-11T04:29:01.333Z,100.00
2022-09-11T04:31:28.863Z,100.00
2022-09-11T04:33:57.996Z,100.00
2022-09-11T04:36:27.277Z,100.00
2022-09-11T04:39:00.266Z,100.00
2022-09-11T04:41:29.054Z,100.00
2022-09-11T04:44:04.876Z,100.00
2022-09-11T04:46:33.421Z,100.00
2022-09-11T04:49:00.585Z,100.00
2022-09-11T04:51:33.228Z,100.00
2022-09-11T04:54:02.060Z,100.00
2022-09-11T04:56:34.928Z,100.00
2022-09-11T04:59:13.701Z,100.00
2022-09-11T05:01:41.640Z,100.00
2022-09-11T05:04:10.560Z,100.00
2022-09-11T05:06:38.099Z,100.00
2022-09-11T05:09:09.717Z,100.00
2022-09-11T05:11:39.446Z,100.00
2022-09-11T05:14:07.724Z,100.00
2022-09-11T05:16:38.045Z,100.00
2022-09-11T05:19:05.926Z,100.00
2022-09-11T05:21:34.253Z,100.00
2022-09-11T05:24:04.515Z,100.00
2022-09-11T05:26:38.826Z,100.00
2022-09-11T05:29:16.637Z,100.00
2022-09-11T05:31:44.011Z,100.00
2022-09-11T05:34:11.335Z,100.00
2022-09-11T05:36:38.392Z,100.00
2022-09-11T05:39:05.559Z,100.00
2022-09-11T05:41:32.668Z,100.00
2022-09-11T05:44:00.080Z,100.00
2022-09-11T05:46:27.237Z,100.00
2022-09-11T05:48:54.398Z,100.00
2022-09-11T05:51:22.517Z,100.00
2022-09-11T05:53:56.854Z,100.00
2022-09-11T05:56:26.450Z,100.00
2022-09-11T05:58:53.922Z,100.00
2022-09-11T06:01:28.964Z,100.00
2022-09-11T06:03:58.072Z,100.00
2022-09-11T06:06:25.916Z,100.00
2022-09-11T06:08:53.490Z,100.00
2022-09-11T06:11:22.298Z,100.00
2022-09-11T06:13:50.693Z,100.00
2022-09-11T06:16:24.225Z,100.00
2022-09-11T06:18:54.420Z,100.00
2022-09-11T06:21:26.922Z,100.00
2022-09-11T06:23:54.329Z,100.00
2022-09-11T06:26:27.215Z,100.00
2022-09-11T06:28:54.902Z,100.00
2022-09-11T06:31:26.962Z,100.00
2022-09-11T06:33:54.439Z,100.00
2022-09-11T06:36:27.236Z,100.00
2022-09-11T06:38:57.449Z,100.00
2022-09-11T06:41:26.548Z,100.00
2022-09-11T06:43:54.096Z,100.00
2022-09-11T06:46:25.519Z,100.00
2022-09-11T06:48:54.037Z,100.00
2022-09-11T06:51:23.772Z,100.00
2022-09-11T06:53:59.425Z,100.00
2022-09-11T06:56:32.918Z,100.00
2022-09-11T06:59:00.536Z,100.00
2022-09-11T07:01:28.632Z,100.00
2022-09-11T07:03:57.171Z,100.00
2022-09-11T07:06:29.028Z,100.00
2022-09-11T07:09:03.067Z,100.00
2022-09-11T07:11:35.556Z,100.00
2022-09-11T07:14:06.390Z,100.00
2022-09-11T07:16:34.941Z,100.00
2022-09-11T07:19:04.180Z,100.00
2022-09-11T07:21:31.993Z,100.00
2022-09-11T07:24:00.756Z,100.00
2022-09-11T07:26:30.435Z,100.00
2022-09-11T07:28:59.917Z,100.00
2022-09-11T07:31:33.146Z,100.00
2022-09-11T07:34:02.946Z,100.00
2022-09-11T07:36:35.013Z,100.00
2022-09-11T07:39:04.243Z,100.00
2022-09-11T07:41:31.702Z,100.00
2022-09-11T07:44:01.029Z,100.00
2022-09-11T07:46:31.372Z,100.00
2022-09-11T07:48:59.066Z,100.00
2022-09-11T07:51:27.083Z,100.00
2022-09-11T07:53:59.574Z,100.00
2022-09-11T07:56:28.677Z,100.00
2022-09-11T07:58:58.526Z,100.00
2022-09-11T08:01:30.806Z,100.00
2022-09-11T08:04:07.025Z,100.00
2022-09-11T08:06:38.618Z,100.00
2022-09-11T08:09:18.592Z,100.00
2022-09-11T08:11:48.871Z,100.00
2022-09-11T08:14:17.787Z,100.00
2022-09-11T08:16:45.357Z,100.00
2022-09-11T08:19:20.801Z,100.00
2022-09-11T08:21:48.489Z,100.00
2022-09-11T08:24:17.891Z,100.00
2022-09-11T08:26:48.801Z,100.00
2022-09-11T08:29:18.354Z,100.00
2022-09-11T08:31:45.454Z,100.00
2022-09-11T08:34:12.623Z,100.00
2022-09-11T08:36:40.006Z,100.00
2022-09-11T08:39:07.164Z,100.00
2022-09-11T08:41:53.756Z,100.00
2022-09-11T08:44:47.790Z,100.00
2022-09-11T08:47:27.736Z,100.00
2022-09-11T08:50:09.478Z,100.00
2022-09-11T08:52:38.064Z,100.00
2022-09-11T08:55:06.940Z,100.00
2022-09-11T08:58:05.322Z,100.00
2022-09-11T09:00:51.288Z,100.00
2022-09-11T09:03:50.205Z,100.00
2022-09-11T09:07:21.705Z,100.00
2022-09-11T09:10:15.391Z,100.00
2022-09-11T09:13:26.423Z,100.00
2022-09-11T09:16:32.565Z,100.00
2022-09-11T09:19:34.808Z,100.00
2022-09-11T09:22:43.884Z,100.00
2022-09-11T09:25:18.104Z,100.00
2022-09-11T09:27:51.372Z,100.00
2022-09-11T09:30:27.592Z,100.00
2022-09-11T09:33:43.117Z,100.00
2022-09-11T09:36:21.022Z,100.00
2022-09-11T09:38:49.157Z,100.00
2022-09-11T09:41:50.586Z,100.00
2022-09-11T09:45:14.548Z,100.00
2022-09-11T09:47:47.943Z,100.00
2022-09-11T09:50:30.564Z,100.00
2022-09-11T09:53:48.691Z,100.00
2022-09-11T09:56:21.292Z,100.00
2022-09-11T09:59:23.447Z,100.00
2022-09-11T10:01:55.191Z,100.00
2022-09-11T10:04:30.301Z,100.00
2022-09-11T10:07:21.864Z,100.00
2022-09-11T10:10:03.327Z,100.00
2022-09-11T10:12:31.728Z,100.00
2022-09-11T10:15:04.014Z,100.00
2022-09-11T10:17:35.260Z,100.00
2022-09-11T10:20:19.552Z,100.00
2022-09-11T10:22:46.968Z,100.00
2022-09-11T10:25:15.302Z,98.18
2022-09-11T10:28:05.012Z,96.87
2022-09-11T10:30:42.330Z,94.82
2022-09-11T10:33:41.298Z,96.75
2022-09-11T10:36:12.025Z,100.00
2022-09-11T10:38:45.362Z,100.00
2022-09-11T10:41:27.687Z,100.00
2022-09-11T10:44:16.260Z,100.00
2022-09-11T10:46:46.575Z,100.00
2022-09-11T10:49:22.871Z,100.00
2022-09-11T10:52:09.019Z,100.00
2022-09-11T10:55:08.715Z,99.68
2022-09-11T10:58:06.231Z,93.59
2022-09-11T11:00:35.845Z,89.03
2022-09-11T11:03:24.098Z,90.07
2022-09-11T11:06:39.304Z,90.22
2022-09-11T11:09:31.290Z,90.60
2022-09-11T11:12:40.418Z,92.80
2022-09-11T11:15:45.956Z,93.83
2022-09-11T11:19:24.046Z,94.99
2022-09-11T11:22:22.543Z,95.08
2022-09-11T11:25:05.497Z,94.48
2022-09-11T11:28:29.781Z,91.48
2022-09-11T11:31:20.792Z,91.35
2022-09-11T11:34:51.237Z,94.23
2022-09-11T11:37:34.382Z,93.60
2022-09-11T11:40:24.145Z,100.00
2022-09-11T11:43:27.540Z,100.00
2022-09-11T11:46:26.800Z,100.00
2022-09-11T11:49:10.688Z,100.00
2022-09-11T11:52:34.087Z,100.00
2022-09-11T11:55:28.987Z,100.00
2022-09-11T11:59:03.831Z,100.00
2022-09-11T12:01:57.735Z,100.00
2022-09-11T12:05:16.855Z,100.00
2022-09-11T12:07:47.363Z,100.00
2022-09-11T12:10:40.694Z,100.00
2022-09-11T12:13:17.385Z,100.00
2022-09-11T12:16:29.108Z,100.00
2022-09-11T12:19:25.481Z,99.37
2022-09-11T12:21:55.161Z,98.68
2022-09-11T12:24:59.104Z,95.64
2022-09-11T12:27:36.419Z,98.38
2022-09-11T12:30:30.869Z,96.79
2022-09-11T12:33:02.320Z,96.80
2022-09-11T12:35:51.976Z,94.40
2022-09-11T12:39:14.499Z,90.63
2022-09-11T12:41:42.194Z,90.44
2022-09-11T12:44:47.005Z,89.79
2022-09-11T12:47:34.844Z,91.48
2022-09-11T12:50:28.376Z,89.64
2022-09-11T12:53:02.417Z,89.92
2022-09-11T12:55:51.094Z,91.38
2022-09-11T12:58:18.936Z,89.07
2022-09-11T13:01:08.829Z,90.86
2022-09-11T13:03:59.537Z,89.76
2022-09-11T13:07:02.633Z,89.31
2022-09-11T13:09:40.027Z,86.92
2022-09-11T13:12:25.728Z,86.86
2022-09-11T13:14:56.521Z,89.65
2022-09-11T13:17:32.716Z,90.04
2022-09-11T13:20:05.371Z,90.00
2022-09-11T13:22:34.673Z,92.04
2022-09-11T13:25:17.394Z,91.57
2022-09-11T13:28:01.517Z,92.56
2022-09-11T13:30:29.247Z,94.31
2022-09-11T13:33:22.711Z,96.16
2022-09-11T13:35:51.852Z,98.70
2022-09-11T13:38:30.494Z,100.00
2022-09-11T13:41:18.310Z,100.00
2022-09-11T13:43:58.167Z,100.00
2022-09-11T13:46:32.780Z,100.00
2022-09-11T13:49:06.725Z,100.00
2022-09-11T13:51:35.780Z,100.00
2022-09-11T13:54:15.788Z,100.00
2022-09-11T13:57:12.445Z,100.00
2022-09-11T13:59:44.799Z,100.00
2022-09-11T14:02:47.829Z,100.00
2022-09-11T14:05:28.084Z,100.00
2022-09-11T14:08:32.915Z,100.00
2022-09-11T14:11:11.725Z,100.00
2022-09-11T14:14:06.106Z,97.76
2022-09-11T14:16:51.950Z,95.12
2022-09-11T14:19:31.557Z,86.97
2022-09-11T14:21:59.884Z,85.44
2022-09-11T14:24:38.263Z,84.62
2022-09-11T14:27:31.320Z,80.77
2022-09-11T14:29:58.735Z,79.12
2022-09-11T14:32:39.083Z,78.21
2022-09-11T14:35:10.459Z,76.54
2022-09-11T14:37:49.616Z,80.42
2022-09-11T14:40:19.997Z,76.79
2022-09-11T14:42:48.761Z,75.28
2022-09-11T14:45:24.582Z,71.25
2022-09-11T14:47:52.297Z,75.68
2022-09-11T14:50:19.727Z,78.23
2022-09-11T14:52:46.930Z,81.71
2022-09-11T14:55:19.559Z,85.76
2022-09-11T14:57:47.795Z,87.51
2022-09-11T15:00:19.001Z,90.68
2022-09-11T15:02:46.971Z,91.67
2022-09-11T15:05:21.687Z,92.63
2022-09-11T15:07:49.165Z,95.73
2022-09-11T15:10:16.615Z,97.28
2022-09-11T15:12:44.603Z,98.62
2022-09-11T15:15:11.702Z,98.98
2022-09-11T15:17:39.037Z,100.00
2022-09-11T15:20:09.233Z,100.00
2022-09-11T15:22:38.885Z,99.45
2022-09-11T15:25:07.454Z,100.00
2022-09-11T15:27:34.743Z,100.00
2022-09-11T15:30:01.847Z,100.00
2022-09-11T15:32:29.646Z,99.28
2022-09-11T15:34:56.690Z,99.10
2022-09-11T15:37:24.701Z,100.00
2022-09-11T15:39:51.963Z,100.00
2022-09-11T15:42:19.593Z,100.00
2022-09-11T15:44:47.974Z,100.00
2022-09-11T15:47:15.087Z,100.00
2022-09-11T15:49:48.037Z,100.00
2022-09-11T15:52:15.086Z,100.00
2022-09-11T15:54:42.959Z,100.00
2022-09-11T15:57:09.985Z,100.00
2022-09-11T15:59:37.190Z,98.75
2022-09-11T16:02:04.871Z,93.80
2022-09-11T16:04:32.370Z,96.79
2022-09-11T16:06:59.998Z,96.58
2022-09-11T16:09:32.141Z,96.70
2022-09-11T16:12:02.039Z,97.78
2022-09-11T16:14:38.472Z,97.56
2022-09-11T16:17:08.455Z,100.00
2022-09-11T16:19:36.782Z,99.22
2022-09-11T16:22:07.075Z,100.00
2022-09-11T16:24:37.881Z,100.00
2022-09-11T16:27:10.316Z,100.00
2022-09-11T16:30:15.658Z,99.43
2022-09-11T16:32:29.084Z,99.12
2022-09-11T16:34:59.632Z,99.96
2022-09-11T16:37:28.363Z,100.00
2022-09-11T16:39:55.725Z,100.00
2022-09-11T16:42:23.446Z,100.00
2022-09-11T16:44:50.779Z,98.87
2022-09-11T16:47:18.171Z,100.00
2022-09-11T16:50:05.809Z,100.00
2022-09-11T16:52:33.812Z,100.00
2022-09-11T16:55:00.947Z,100.00
2022-09-11T16:57:27.999Z,100.00
2022-09-11T16:59:54.991Z,100.00
2022-09-11T17:02:22.020Z,100.00
2022-09-11T17:04:49.150Z,100.00
2022-09-11T17:07:16.133Z,100.00
2022-09-11T17:09:43.795Z,100.00
2022-09-11T17:12:18.001Z,100.00
2022-09-11T17:14:45.286Z,100.00
2022-09-11T17:17:12.219Z,100.00
2022-09-11T17:19:39.714Z,100.00
2022-09-11T17:22:07.361Z,100.00
2022-09-11T17:24:35.222Z,100.00
2022-09-11T17:27:02.857Z,100.00
2022-09-11T17:29:29.902Z,100.00
2022-09-11T17:32:16.661Z,100.00
2022-09-11T17:34:43.820Z,100.00
2022-09-11T17:37:12.157Z,100.00
2022-09-11T17:39:42.443Z,100.00
2022-09-11T17:42:14.063Z,100.00
2022-09-11T17:44:42.316Z,100.00
2022-09-11T17:47:09.509Z,100.00
2022-09-11T17:49:36.429Z,100.00
2022-09-11T17:52:04.438Z,100.00
2022-09-11T17:54:31.768Z,100.00
2022-09-11T17:56:59.159Z,100.00
2022-09-11T17:59:29.067Z,100.00
2022-09-11T18:01:56.022Z,100.00
2022-09-11T18:04:23.009Z,100.00
2022-09-11T18:06:51.166Z,100.00
2022-09-11T18:09:19.909Z,100.00
2022-09-11T18:11:53.989Z,100.00
2022-09-11T18:14:20.984Z,100.00
2022-09-11T18:16:48.551Z,100.00
2022-09-11T18:24:32.269Z,100.00
2022-09-11T18:27:01.132Z,100.00
2022-09-11T18:29:30.332Z,100.00
2022-09-11T18:31:59.871Z,100.00
2022-09-11T18:34:29.401Z,100.00
2022-09-11T18:36:56.415Z,100.00
2022-09-11T18:39:23.844Z,100.00
2022-09-11T18:41:52.840Z,100.00
2022-09-11T18:44:25.035Z,100.00
2022-09-11T18:46:56.028Z,100.00
2022-09-11T18:49:23.481Z,100.00
2022-09-11T18:51:51.893Z,100.00
2022-09-11T18:54:21.312Z,100.00
2022-09-11T18:56:50.720Z,100.00
2022-09-11T18:59:19.440Z,100.00
2022-09-11T19:01:46.528Z,100.00
2022-09-11T19:04:15.247Z,100.00
2022-09-11T19:06:42.336Z,100.00
2022-09-11T19:09:12.735Z,100.00
2022-09-11T19:11:40.918Z,100.00
2022-09-11T19:14:12.352Z,100.00
2022-09-11T19:16:40.245Z,100.00
2022-09-11T19:19:08.259Z,100.00
2022-09-11T19:21:38.429Z,100.00
2022-09-11T19:24:06.823Z,100.00
2022-09-11T19:26:39.120Z,100.00
2022-09-11T19:29:09.891Z,100.00
2022-09-11T19:31:39.331Z,100.00
2022-09-11T19:34:11.858Z,100.00
2022-09-11T19:36:41.133Z,100.00
2022-09-11T19:39:10.356Z,100.00
2022-09-11T19:41:39.963Z,100.00
2022-09-11T19:44:13.706Z,100.00
2022-09-11T19:46:43.128Z,100.00
2022-09-11T19:49:11.250Z,100.00
2022-09-11T19:51:42.985Z,100.00
2022-09-11T19:54:14.420Z,100.00
2022-09-11T19:56:47.404Z,100.00
2022-09-11T19:59:14.484Z,100.00
2022-09-11T20:01:41.891Z,100.00
2022-09-11T20:04:11.426Z,100.00
2022-09-11T20:06:39.283Z,100.00
2022-09-11T20:09:29.906Z,100.00
2022-09-11T20:11:54.089Z,100.00
2022-09-11T20:14:21.126Z,100.00
2022-09-11T20:16:48.794Z,100.00
2022-09-11T20:19:17.285Z,100.00
2022-09-11T20:21:44.360Z,100.00
2022-09-11T20:24:11.353Z,100.00
2022-09-11T20:26:38.412Z,100.00
2022-09-11T20:29:13.927Z,100.00
2022-09-11T20:31:49.757Z,100.00
2022-09-11T20:34:19.970Z,100.00
2022-09-11T20:36:47.664Z,100.00
2022-09-11T20:39:15.510Z,100.00
2022-09-11T20:41:44.063Z,100.00
2022-09-11T20:44:11.852Z,100.00
2022-09-11T20:46:39.178Z,100.00
2022-09-11T20:49:06.230Z,100.00
2022-09-11T20:51:34.804Z,100.00
2022-09-11T20:54:02.596Z,100.00
2022-09-11T20:56:31.296Z,100.00
2022-09-11T20:59:00.602Z,100.00
2022-09-11T21:01:34.763Z,100.00
2022-09-11T21:04:04.688Z,100.00
2022-09-11T21:06:35.466Z,100.00
2022-09-11T21:09:11.167Z,100.00
2022-09-11T21:11:42.588Z,100.00
2022-09-11T21:14:13.014Z,100.00
2022-09-11T21:16:40.458Z,100.00
2022-09-11T21:19:09.144Z,100.00
2022-09-11T21:21:40.450Z,100.00
2022-09-11T21:24:13.714Z,100.00
2022-09-11T21:26:42.444Z,100.00
2022-09-11T21:29:13.438Z,100.00
2022-09-11T21:31:40.614Z,100.00
2022-09-11T21:34:07.744Z,100.00
2022-09-11T21:36:36.743Z,100.00
2022-09-11T21:39:05.260Z,100.00
2022-09-11T21:41:32.206Z,100.00
2022-09-11T21:43:59.320Z,100.00
2022-09-11T21:46:26.418Z,100.00
2022-09-11T21:48:53.537Z,100.00
2022-09-11T21:51:21.112Z,100.00
2022-09-11T21:53:55.907Z,100.00
2022-09-11T21:56:30.474Z,100.00
2022-09-11T21:58:58.799Z,100.00
2022-09-11T22:01:28.577Z,100.00
2022-09-11T22:03:55.965Z,100.00
2022-09-11T22:06:24.760Z,100.00
2022-09-11T22:08:53.512Z,100.00
2022-09-11T22:11:21.426Z,100.00
2022-09-11T22:13:49.600Z,100.00
2022-09-11T22:16:19.549Z,100.00
2022-09-11T22:18:55.191Z,100.00
2022-09-11T22:21:22.738Z,100.00
2022-09-11T22:23:50.212Z,100.00
2022-09-11T22:26:21.560Z,100.00
2022-09-11T22:28:48.818Z,100.00
2022-09-11T22:31:21.783Z,100.00
2022-09-11T22:33:48.829Z,100.00
2022-09-11T22:36:30.617Z,100.00
2022-09-11T22:38:59.129Z,100.00
2022-09-11T22:41:27.523Z,100.00
2022-09-11T22:43:54.434Z,100.00
2022-09-11T22:46:21.552Z,100.00
2022-09-11T22:48:49.143Z,100.00
2022-09-11T22:51:16.783Z,100.00
2022-09-11T22:53:44.073Z,100.00
2022-09-11T22:56:13.810Z,100.00
2022-09-11T22:58:41.645Z,100.00
2022-09-11T23:01:12.573Z,100.00
2022-09-11T23:03:39.684Z,100.00
2022-09-11T23:06:36.115Z,100.00
2022-09-11T23:09:13.195Z,100.00
2022-09-11T23:11:40.463Z,100.00
2022-09-11T23:14:13.317Z,100.00
2022-09-11T23:16:41.773Z,100.00
2022-09-11T23:19:13.971Z,100.00
2022-09-11T23:21:42.848Z,100.00
2022-09-11T23:24:14.457Z,100.00
2022-09-11T23:26:41.792Z,100.00
2022-09-11T23:29:09.140Z,100.00
2022-09-11T23:31:37.279Z,100.00
2022-09-11T23:34:09.329Z,100.00
2022-09-11T23:36:36.680Z,100.00
2022-09-11T23:39:04.500Z,100.00
2022-09-11T23:41:32.157Z,100.00
2022-09-11T23:43:59.825Z,100.00
2022-09-11T23:46:27.260Z,100.00
2022-09-11T23:48:54.295Z,100.00
2022-09-11T23:51:22.390Z,100.00
2022-09-11T23:53:51.671Z,100.00
2022-09-11T23:56:19.459Z,100.00
2022-09-11T23:58:46.650Z,100.00
